Time,TemperatureF,DewpointF,PressureIn,WindDirection,WindDirectionDegrees,WindSpeedMPH,WindSpeedGustMPH,Humidity,HourlyPrecipIn,Conditions,Clouds,dailyrainin,SoftwareType,DateUTC
2013-03-21 00:03:00,36.0,23.0,29.82,North,360,6.0,9.0,60,0.00,,,0.00,,2013-03-21 04:03:00,
2013-03-21 00:13:00,36.0,23.0,29.82,North,360,6.0,9.0,60,0.00,,,0.00,,2013-03-21 04:13:00,
2013-03-21 00:23:00,36.0,23.0,29.82,NNW,333,7.0,12.0,60,0.00,,,0.00,,2013-03-21 04:23:00,
2013-03-21 00:33:00,36.0,23.0,29.81,North,350,5.0,10.0,60,0.00,,,0.00,,2013-03-21 04:33:00,
2013-03-21 00:43:00,36.0,23.0,29.81,North,350,5.0,10.0,60,0.00,,,0.00,,2013-03-21 04:43:00,
2013-03-21 00:53:00,35.0,23.0,29.81,North,355,9.0,13.0,60,0.00,,,0.00,,2013-03-21 04:53:00,
2013-03-21 01:03:00,35.0,23.0,29.81,NNW,345,10.0,15.0,60,0.00,,,0.00,,2013-03-21 05:03:00,
2013-03-21 01:12:00,35.0,23.0,29.81,NNW,345,10.0,15.0,60,0.00,,,0.00,,2013-03-21 05:12:00,
2013-03-21 01:22:00,34.0,22.0,29.81,North,355,9.0,15.0,60,0.00,,,0.00,,2013-03-21 05:22:00,
2013-03-21 01:32:00,34.0,21.0,29.81,North,355,7.0,17.0,59,0.00,,,0.00,,2013-03-21 05:32:00,
2013-03-21 01:44:00,34.0,20.0,29.81,NNE,19,8.0,15.0,57,0.00,,,0.00,,2013-03-21 05:44:00,
2013-03-21 01:52:00,34.0,20.0,29.81,NNE,19,8.0,15.0,57,0.00,,,0.00,,2013-03-21 05:52:00,
2013-03-21 02:03:00,33.0,20.0,29.82,North,355,7.0,13.0,58,0.00,,,0.00,,2013-03-21 06:03:00,
2013-03-21 02:12:00,33.0,20.0,29.82,North,355,7.0,13.0,58,0.00,,,0.00,,2013-03-21 06:12:00,
2013-03-21 02:22:00,33.0,20.0,29.81,North,351,8.0,14.0,58,0.00,,,0.00,,2013-03-21 06:22:00,
2013-03-21 02:32:00,32.0,18.0,29.81,North,355,6.0,14.0,56,0.00,,,0.00,,2013-03-21 06:32:00,
2013-03-21 02:42:00,32.0,18.0,29.81,North,355,6.0,14.0,56,0.00,,,0.00,,2013-03-21 06:42:00,
2013-03-21 02:52:00,32.0,18.0,29.81,NNE,19,4.0,8.0,56,0.00,,,0.00,,2013-03-21 06:52:00,
2013-03-21 03:02:00,32.0,17.0,29.80,North,355,5.0,9.0,54,0.00,,,0.00,,2013-03-21 07:02:00,
2013-03-21 03:12:00,32.0,17.0,29.80,North,355,5.0,9.0,54,0.00,,,0.00,,2013-03-21 07:12:00,
2013-03-21 03:22:00,32.0,17.0,29.80,North,355,3.0,5.0,54,0.00,,,0.00,,2013-03-21 07:22:00,
2013-03-21 03:32:00,31.0,17.0,29.80,North,355,3.0,5.0,55,0.00,,,0.00,,2013-03-21 07:32:00,
2013-03-21 03:42:00,31.0,17.0,29.80,North,355,3.0,5.0,55,0.00,,,0.00,,2013-03-21 07:42:00,
2013-03-21 03:53:00,31.0,18.0,29.80,North,355,0.0,2.0,57,0.00,,,0.00,,2013-03-21 07:53:00,
2013-03-21 04:02:00,31.0,16.0,29.80,NNW,339,4.0,6.0,53,0.00,,,0.00,,2013-03-21 08:02:00,
2013-03-21 04:13:00,31.0,14.0,29.80,NNW,340,7.0,12.0,49,0.00,,,0.00,,2013-03-21 08:13:00,
2013-03-21 04:23:00,31.0,14.0,29.80,NNW,340,7.0,12.0,49,0.00,,,0.00,,2013-03-21 08:23:00,
2013-03-21 04:33:00,31.0,15.0,29.79,NNW,342,4.0,6.0,52,0.00,,,0.00,,2013-03-21 08:33:00,
2013-03-21 04:42:00,31.0,15.0,29.79,NNW,342,4.0,6.0,52,0.00,,,0.00,,2013-03-21 08:42:00,
2013-03-21 04:52:00,30.0,14.0,29.79,NNW,342,0.0,2.0,51,0.00,,,0.00,,2013-03-21 08:52:00,
2013-03-21 05:02:00,29.0,14.0,29.78,NNW,342,1.0,3.0,53,0.00,,,0.00,,2013-03-21 09:02:00,
2013-03-21 05:11:00,29.0,14.0,29.78,NNW,342,1.0,3.0,53,0.00,,,0.00,,2013-03-21 09:11:00,
2013-03-21 05:22:00,28.0,15.0,29.78,NNW,341,3.0,5.0,57,0.00,,,0.00,,2013-03-21 09:22:00,
2013-03-21 05:33:00,28.0,15.0,29.79,NNW,343,0.0,6.0,57,0.00,,,0.00,,2013-03-21 09:33:00,
2013-03-21 05:43:00,28.0,15.0,29.79,NNW,343,0.0,6.0,57,0.00,,,0.00,,2013-03-21 09:43:00,
2013-03-21 05:53:00,27.0,16.0,29.78,NNW,343,0.0,2.0,64,0.00,,,0.00,,2013-03-21 09:53:00,
2013-03-21 06:03:00,28.0,15.0,29.78,NNW,343,0.0,2.0,57,0.00,,,0.00,,2013-03-21 10:03:00,
2013-03-21 06:12:00,28.0,15.0,29.78,NNW,343,0.0,2.0,57,0.00,,,0.00,,2013-03-21 10:12:00,
2013-03-21 06:23:00,28.0,15.0,29.79,NNW,343,0.0,0.0,57,0.00,,,0.00,,2013-03-21 10:23:00,
2013-03-21 06:33:00,27.0,14.0,29.79,NNW,343,3.0,5.0,58,0.00,,,0.00,,2013-03-21 10:33:00,
2013-03-21 06:42:00,27.0,14.0,29.79,NNW,343,3.0,5.0,58,0.00,,,0.00,,2013-03-21 10:42:00,
2013-03-21 06:53:00,26.0,14.0,29.79,NNW,343,3.0,5.0,59,0.00,,,0.00,,2013-03-21 10:53:00,
2013-03-21 07:03:00,27.0,14.0,29.79,NNW,336,3.0,8.0,58,0.00,,,0.00,,2013-03-21 11:03:00,
2013-03-21 07:12:00,27.0,14.0,29.79,NNW,336,3.0,8.0,58,0.00,,,0.00,,2013-03-21 11:12:00,
2013-03-21 07:22:00,27.0,14.0,29.79,NNW,336,0.0,4.0,58,0.00,,,0.00,,2013-03-21 11:22:00,
2013-03-21 07:33:00,26.0,13.0,29.80,NNW,336,1.0,2.0,57,0.00,,,0.00,,2013-03-21 11:33:00,
2013-03-21 07:43:00,26.0,13.0,29.80,NNW,336,1.0,2.0,57,0.00,,,0.00,,2013-03-21 11:43:00,
2013-03-21 07:53:00,26.0,13.0,29.80,NNW,336,0.0,2.0,58,0.00,,,0.00,,2013-03-21 11:53:00,
2013-03-21 08:03:00,26.0,14.0,29.80,NNW,336,1.0,3.0,60,0.00,,,0.00,,2013-03-21 12:03:00,
2013-03-21 08:12:00,26.0,14.0,29.80,NNW,336,1.0,3.0,60,0.00,,,0.00,,2013-03-21 12:12:00,
2013-03-21 08:22:00,27.0,15.0,29.80,NNW,336,2.0,5.0,59,0.00,,,0.00,,2013-03-21 12:22:00,
2013-03-21 08:33:00,28.0,15.0,29.80,NNW,336,2.0,5.0,58,0.00,,,0.00,,2013-03-21 12:33:00,
2013-03-21 08:43:00,28.0,15.0,29.80,NNW,336,2.0,5.0,58,0.00,,,0.00,,2013-03-21 12:43:00,
2013-03-21 08:53:00,29.0,14.0,29.80,NNW,336,2.0,5.0,54,0.00,,,0.00,,2013-03-21 12:53:00,
2013-03-21 09:02:00,30.0,15.0,29.80,NNW,333,4.0,6.0,54,0.00,,,0.00,,2013-03-21 13:02:00,
2013-03-21 09:12:00,30.0,15.0,29.80,NNW,333,4.0,6.0,54,0.00,,,0.00,,2013-03-21 13:12:00,
2013-03-21 09:22:00,31.0,16.0,29.80,WNW,292,6.0,11.0,53,0.00,,,0.00,,2013-03-21 13:22:00,
2013-03-21 09:32:00,30.0,14.0,29.79,NW,311,5.0,9.0,50,0.00,,,0.00,,2013-03-21 13:32:00,
2013-03-21 09:42:00,30.0,14.0,29.79,NW,311,5.0,9.0,50,0.00,,,0.00,,2013-03-21 13:42:00,
2013-03-21 09:53:00,31.0,13.0,29.79,NW,304,6.0,11.0,47,0.00,,,0.00,,2013-03-21 13:53:00,
2013-03-21 10:02:00,31.0,13.0,29.79,NW,309,6.0,13.0,46,0.00,,,0.00,,2013-03-21 14:02:00,
2013-03-21 10:12:00,31.0,15.0,29.79,NW,308,7.0,11.0,50,0.00,,,0.00,,2013-03-21 14:12:00,
2013-03-21 10:22:00,31.0,15.0,29.79,NW,308,7.0,11.0,50,0.00,,,0.00,,2013-03-21 14:22:00,
2013-03-21 10:32:00,29.0,16.0,29.80,NNW,330,13.0,20.0,59,0.00,,,0.00,,2013-03-21 14:32:00,
2013-03-21 10:42:00,29.0,16.0,29.80,NNW,330,13.0,20.0,59,0.00,,,0.00,,2013-03-21 14:42:00,
2013-03-21 10:52:00,30.0,15.0,29.80,NNW,342,15.0,20.0,52,0.00,,,0.00,,2013-03-21 14:52:00,
2013-03-21 11:03:00,31.0,14.0,29.80,NNW,340,12.0,18.0,49,0.00,,,0.00,,2013-03-21 15:03:00,
2013-03-21 11:12:00,31.0,15.0,29.80,NW,309,7.0,17.0,50,0.00,,,0.00,,2013-03-21 15:12:00,
2013-03-21 11:22:00,31.0,15.0,29.80,NW,309,7.0,17.0,50,0.00,,,0.00,,2013-03-21 15:22:00,
2013-03-21 11:33:00,32.0,15.0,29.79,WNW,302,9.0,21.0,48,0.00,,,0.00,,2013-03-21 15:33:00,
2013-03-21 11:42:00,32.0,15.0,29.79,WNW,302,9.0,21.0,48,0.00,,,0.00,,2013-03-21 15:42:00,
2013-03-21 11:53:00,32.0,15.0,29.79,WNW,302,9.0,21.0,48,0.00,,,0.00,,2013-03-21 15:53:00,
2013-03-21 12:03:00,32.0,9.0,29.79,WNW,290,10.0,18.0,38,0.00,,,0.00,,2013-03-21 16:03:00,
2013-03-21 12:12:00,32.0,9.0,29.79,WNW,290,10.0,18.0,38,0.00,,,0.00,,2013-03-21 16:12:00,
2013-03-21 12:23:00,33.0,11.0,29.79,NW,325,9.0,16.0,39,0.00,,,0.00,,2013-03-21 16:23:00,
2013-03-21 12:33:00,33.0,11.0,29.79,West,281,10.0,20.0,40,0.00,,,0.00,,2013-03-21 16:33:00,
2013-03-21 12:42:00,33.0,11.0,29.79,West,281,10.0,20.0,40,0.00,,,0.00,,2013-03-21 16:42:00,
2013-03-21 12:53:00,33.0,11.0,29.79,NW,314,9.0,19.0,39,0.00,,,0.00,,2013-03-21 16:53:00,
2013-03-21 13:02:00,33.0,10.0,29.78,NNW,332,14.0,18.0,37,0.00,,,0.00,,2013-03-21 17:02:00,
2013-03-21 13:12:00,33.0,10.0,29.78,NNW,332,14.0,18.0,37,0.00,,,0.00,,2013-03-21 17:12:00,
2013-03-21 13:23:00,32.0,9.0,29.78,WNW,294,9.0,20.0,38,0.00,,,0.00,,2013-03-21 17:23:00,
2013-03-21 13:33:00,33.0,11.0,29.78,NW,322,10.0,17.0,39,0.00,,,0.00,,2013-03-21 17:33:00,
2013-03-21 13:43:00,33.0,11.0,29.78,NW,322,10.0,17.0,39,0.00,,,0.00,,2013-03-21 17:43:00,
2013-03-21 13:53:00,34.0,11.0,29.78,WNW,294,11.0,21.0,37,0.00,,,0.00,,2013-03-21 17:53:00,
2013-03-21 14:02:00,34.0,12.0,29.77,NNW,340,10.0,21.0,39,0.00,,,0.00,,2013-03-21 18:02:00,
2013-03-21 14:12:00,34.0,12.0,29.77,NNW,340,10.0,21.0,39,0.00,,,0.00,,2013-03-21 18:12:00,
2013-03-21 14:23:00,32.0,9.0,29.77,NW,322,13.0,18.0,37,0.00,,,0.00,,2013-03-21 18:23:00,
2013-03-21 14:32:00,32.0,8.0,29.77,NW,317,14.0,22.0,36,0.00,,,0.00,,2013-03-21 18:32:00,
2013-03-21 14:42:00,32.0,8.0,29.77,NW,317,14.0,22.0,36,0.00,,,0.00,,2013-03-21 18:42:00,
2013-03-21 14:52:00,34.0,11.0,29.76,NNW,341,13.0,19.0,38,0.00,,,0.00,,2013-03-21 18:52:00,
2013-03-21 15:02:00,33.0,10.0,29.76,NNW,341,11.0,24.0,37,0.00,,,0.00,,2013-03-21 19:02:00,
2013-03-21 15:12:00,33.0,10.0,29.76,NNW,341,11.0,24.0,37,0.00,,,0.00,,2013-03-21 19:12:00,
2013-03-21 15:22:00,33.0,9.0,29.76,NW,321,13.0,19.0,36,0.00,,,0.00,,2013-03-21 19:22:00,
2013-03-21 15:32:00,32.0,10.0,29.76,NW,314,10.0,18.0,39,0.00,,,0.00,,2013-03-21 19:32:00,
2013-03-21 15:43:00,32.0,10.0,29.76,NW,314,10.0,18.0,39,0.00,,,0.00,,2013-03-21 19:43:00,
2013-03-21 15:53:00,32.0,9.0,29.76,NW,319,11.0,20.0,37,0.00,,,0.00,,2013-03-21 19:53:00,
2013-03-21 16:02:00,32.0,9.0,29.76,NW,319,11.0,20.0,37,0.00,,,0.00,,2013-03-21 20:02:00,
2013-03-21 16:12:00,32.0,9.0,29.76,NW,319,11.0,20.0,37,0.00,,,0.00,,2013-03-21 20:12:00,
2013-03-21 16:22:00,32.0,9.0,29.76,NW,319,11.0,20.0,37,0.00,,,0.00,,2013-03-21 20:22:00,
2013-03-21 16:33:00,32.0,8.0,29.76,NW,321,15.0,25.0,36,0.00,,,0.00,,2013-03-21 20:33:00,
2013-03-21 16:43:00,32.0,8.0,29.76,NW,321,15.0,25.0,36,0.00,,,0.00,,2013-03-21 20:43:00,
2013-03-21 16:53:00,34.0,10.0,29.76,NW,316,12.0,20.0,36,0.00,,,0.00,,2013-03-21 20:53:00,
2013-03-21 17:03:00,33.0,8.0,29.76,NW,317,12.0,19.0,35,0.00,,,0.00,,2013-03-21 21:03:00,
2013-03-21 17:12:00,33.0,8.0,29.76,NW,317,12.0,19.0,35,0.00,,,0.00,,2013-03-21 21:12:00,
2013-03-21 17:22:00,33.0,8.0,29.77,NW,312,13.0,23.0,35,0.00,,,0.00,,2013-03-21 21:22:00,
2013-03-21 17:33:00,32.0,8.0,29.77,WNW,299,12.0,23.0,36,0.00,,,0.00,,2013-03-21 21:33:00,
2013-03-21 17:43:00,32.0,8.0,29.77,WNW,299,12.0,23.0,36,0.00,,,0.00,,2013-03-21 21:43:00,
2013-03-21 17:53:00,31.0,7.0,29.78,NW,317,9.0,20.0,36,0.00,,,0.00,,2013-03-21 21:53:00,
2013-03-21 18:03:00,32.0,9.0,29.78,NW,321,13.0,18.0,37,0.00,,,0.00,,2013-03-21 22:03:00,
2013-03-21 18:13:00,32.0,9.0,29.78,NW,321,13.0,18.0,37,0.00,,,0.00,,2013-03-21 22:13:00,
2013-03-21 18:23:00,32.0,8.0,29.79,NW,325,11.0,18.0,36,0.00,,,0.00,,2013-03-21 22:23:00,
2013-03-21 18:33:00,31.0,8.0,29.79,WNW,300,10.0,19.0,37,0.00,,,0.00,,2013-03-21 22:33:00,
2013-03-21 18:42:00,31.0,8.0,29.79,WNW,300,10.0,19.0,37,0.00,,,0.00,,2013-03-21 22:42:00,
2013-03-21 18:53:00,31.0,8.0,29.79,WNW,298,9.0,21.0,37,0.00,,,0.00,,2013-03-21 22:53:00,
2013-03-21 19:02:00,30.0,8.0,29.80,NW,311,7.0,16.0,38,0.00,,,0.00,,2013-03-21 23:02:00,
2013-03-21 19:12:00,30.0,8.0,29.80,NW,311,7.0,16.0,38,0.00,,,0.00,,2013-03-21 23:12:00,
2013-03-21 19:22:00,30.0,8.0,29.80,NW,317,8.0,12.0,38,0.00,,,0.00,,2013-03-21 23:22:00,
2013-03-21 19:33:00,30.0,8.0,29.81,NW,306,4.0,12.0,39,0.00,,,0.00,,2013-03-21 23:33:00,
2013-03-21 19:42:00,30.0,8.0,29.81,NW,306,4.0,12.0,39,0.00,,,0.00,,2013-03-21 23:42:00,
2013-03-21 19:53:00,29.0,9.0,29.81,NW,307,2.0,7.0,42,0.00,,,0.00,,2013-03-21 23:53:00,
2013-03-21 20:03:00,29.0,8.0,29.82,NW,313,9.0,14.0,40,0.00,,,0.00,,2013-03-22 00:03:00,
2013-03-21 20:12:00,29.0,8.0,29.82,NW,313,9.0,14.0,40,0.00,,,0.00,,2013-03-22 00:12:00,
2013-03-21 20:22:00,29.0,9.0,29.82,NW,310,5.0,8.0,42,0.00,,,0.00,,2013-03-22 00:22:00,
2013-03-21 20:32:00,29.0,8.0,29.82,NW,324,9.0,13.0,41,0.00,,,0.00,,2013-03-22 00:32:00,
2013-03-21 20:42:00,29.0,8.0,29.82,NW,324,9.0,13.0,41,0.00,,,0.00,,2013-03-22 00:42:00,
2013-03-21 20:52:00,29.0,9.0,29.83,WNW,302,7.0,10.0,42,0.00,,,0.00,,2013-03-22 00:52:00,
2013-03-21 21:02:00,28.0,9.0,29.83,NW,309,4.0,7.0,44,0.00,,,0.00,,2013-03-22 01:02:00,
2013-03-21 21:12:00,28.0,9.0,29.83,NW,309,4.0,7.0,44,0.00,,,0.00,,2013-03-22 01:12:00,
2013-03-21 21:22:00,29.0,10.0,29.83,NW,311,3.0,9.0,44,0.00,,,0.00,,2013-03-22 01:22:00,
2013-03-21 21:32:00,28.0,9.0,29.83,WNW,298,4.0,7.0,44,0.00,,,0.00,,2013-03-22 01:32:00,
2013-03-21 21:43:00,28.0,9.0,29.83,WNW,298,4.0,7.0,44,0.00,,,0.00,,2013-03-22 01:43:00,
2013-03-21 21:53:00,28.0,9.0,29.84,WNW,288,2.0,5.0,44,0.00,,,0.00,,2013-03-22 01:53:00,
2013-03-21 22:02:00,28.0,9.0,29.85,WNW,283,3.0,7.0,45,0.00,,,0.00,,2013-03-22 02:02:00,
2013-03-21 22:12:00,28.0,9.0,29.85,WNW,283,3.0,7.0,45,0.00,,,0.00,,2013-03-22 02:12:00,
2013-03-21 22:22:00,28.0,10.0,29.84,WNW,292,4.0,7.0,46,0.00,,,0.00,,2013-03-22 02:22:00,
2013-03-21 22:32:00,28.0,10.0,29.84,WNW,288,4.0,9.0,47,0.00,,,0.00,,2013-03-22 02:32:00,
2013-03-21 22:43:00,28.0,10.0,29.84,WNW,288,4.0,9.0,47,0.00,,,0.00,,2013-03-22 02:43:00,
2013-03-21 22:53:00,27.0,10.0,29.85,WNW,284,3.0,6.0,48,0.00,,,0.00,,2013-03-22 02:53:00,
2013-03-21 23:02:00,27.0,10.0,29.85,WNW,286,3.0,7.0,48,0.00,,,0.00,,2013-03-22 03:02:00,
2013-03-21 23:12:00,27.0,10.0,29.85,WNW,286,3.0,7.0,48,0.00,,,0.00,,2013-03-22 03:12:00,
2013-03-21 23:22:00,27.0,10.0,29.85,West,280,2.0,5.0,49,0.00,,,0.00,,2013-03-22 03:22:00,
2013-03-21 23:33:00,26.0,10.0,29.85,WSW,240,1.0,5.0,51,0.00,,,0.00,,2013-03-22 03:33:00,
2013-03-21 23:43:00,26.0,10.0,29.85,WSW,240,1.0,5.0,51,0.00,,,0.00,,2013-03-22 03:43:00,
2013-03-21 23:53:00,27.0,10.0,29.85,SW,214,1.0,3.0,49,0.00,,,0.00,,2013-03-22 03:53:00,